Time;durP1;ratioP1;P1;durP2;ratioP2;P2;SDS_P1;SDS_P2;PMS_P1;PMS_P2;Temp;Humidity;BMP_temperature;BMP_pressure;BME280_temperature;BME280_humidity;BME280_pressure;Samples;Min_cycle;Max_cycle;Signal;HPM_P1;HPM_P2
2021/08/17 00:01:30;;;;;;;26.30;13.72;;;;;;;18.94;68.54;100484.92;1787037;80;21808;-57
2021/08/17 00:04:37;;;;;;;30.70;13.78;;;;;;;18.89;68.59;100481.98;1787936;78;21748;-56
2021/08/17 00:07:43;;;;;;;30.40;11.78;;;;;;;18.85;68.81;100494.58;1764729;80;21242;-56
2021/08/17 00:10:50;;;;;;;29.52;13.43;;;;;;;18.86;68.81;100493.53;1787234;79;21185;-55
2021/08/17 00:13:57;;;;;;;28.20;13.25;;;;;;;18.84;68.84;100495.67;1786951;79;21362;-54
2021/08/17 00:17:02;;;;;;;28.02;13.30;;;;;;;18.86;68.80;100492.14;1787722;79;21389;-54
2021/08/17 00:20:08;;;;;;;29.18;12.75;;;;;;;18.83;68.74;100493.98;1788316;78;21205;-55
2021/08/17 00:23:16;;;;;;;34.95;13.22;;;;;;;18.78;68.76;100497.11;1763346;79;21200;-56
2021/08/17 00:26:23;;;;;;;41.18;12.63;;;;;;;18.72;68.88;100498.88;1787125;80;21153;-56
2021/08/17 00:29:30;;;;;;;27.50;12.63;;;;;;;18.68;69.10;100496.79;1770912;80;21762;-55
2021/08/17 00:32:36;;;;;;;26.20;12.88;;;;;;;18.69;69.25;100497.95;1789827;78;21149;-55
2021/08/17 00:35:43;;;;;;;32.53;13.05;;;;;;;18.66;69.08;100501.14;1785124;80;21371;-56
2021/08/17 00:38:50;;;;;;;36.53;14.45;;;;;;;18.61;69.13;100499.61;1774927;79;21256;-55
2021/08/17 00:41:57;;;;;;;26.50;12.18;;;;;;;18.61;69.37;100495.45;1707364;82;21266;-55
2021/08/17 00:45:03;;;;;;;38.00;12.93;;;;;;;18.59;69.40;100492.57;1787431;78;21208;-55
2021/08/17 00:48:09;;;;;;;31.52;13.48;;;;;;;18.54;69.47;100500.19;1796585;77;21864;-55
2021/08/17 00:51:15;;;;;;;43.78;12.95;;;;;;;18.50;69.62;100497.56;1767972;81;21746;-54
2021/08/17 00:54:22;;;;;;;35.28;12.47;;;;;;;18.47;69.70;100498.54;1768095;80;21422;-55
2021/08/17 00:57:28;;;;;;;35.17;12.70;;;;;;;18.39;69.64;100496.89;1768267;80;21856;-56
2021/08/17 01:00:35;;;;;;;44.93;12.25;;;;;;;18.34;69.66;100500.84;1768060;80;21189;-56
2021/08/17 01:03:46;;;;;;;41.77;12.93;;;;;;;18.31;69.75;100490.73;1767876;80;21364;-55
2021/08/17 01:06:52;;;;;;;49.20;13.53;;;;;;;18.29;70.02;100497.87;1767848;81;21193;-56
2021/08/17 01:09:58;;;;;;;39.42;13.28;;;;;;;18.30;70.15;100499.56;1767892;80;21174;-56
2021/08/17 01:13:05;;;;;;;42.50;13.13;;;;;;;18.28;70.16;100499.48;1756069;80;21654;-56
2021/08/17 01:16:11;;;;;;;36.53;13.60;;;;;;;18.22;70.13;100495.67;1767948;81;21324;-56
2021/08/17 01:19:21;;;;;;;33.28;12.80;;;;;;;18.19;70.03;100499.45;1767995;80;21201;-56
2021/08/17 01:22:26;;;;;;;39.67;13.30;;;;;;;18.19;70.25;100500.27;1757349;81;21189;-56
2021/08/17 01:25:32;;;;;;;31.93;11.33;;;;;;;18.24;70.12;100496.30;1767849;81;21411;-55
2021/08/17 01:28:38;;;;;;;37.20;12.00;;;;;;;18.22;69.78;100497.05;1768104;80;21355;-55
2021/08/17 01:31:44;;;;;;;36.30;12.95;;;;;;;18.21;69.99;100499.52;1767751;81;21198;-55
2021/08/17 01:34:51;;;;;;;36.20;12.37;;;;;;;18.24;70.04;100496.83;1767779;80;21856;-55
2021/08/17 01:37:57;;;;;;;30.68;11.25;;;;;;;18.24;69.83;100494.92;1767735;80;21227;-55
2021/08/17 01:41:03;;;;;;;34.40;12.25;;;;;;;18.19;69.84;100493.34;1766853;81;21192;-55
2021/08/17 01:44:18;;;;;;;29.55;12.63;;;;;;;18.13;69.90;100498.40;1738022;81;21205;-55
2021/08/17 01:47:23;;;;;;;33.05;11.75;;;;;;;18.05;70.33;100495.02;1804620;79;21311;-56
2021/08/17 01:50:28;;;;;;;47.15;12.90;;;;;;;18.03;70.68;100498.02;1777038;80;21813;-55
2021/08/17 01:53:37;;;;;;;36.23;12.40;;;;;;;17.98;70.58;100492.31;1777710;78;21386;-55
2021/08/17 01:56:42;;;;;;;24.85;11.55;;;;;;;17.95;70.58;100499.66;1779771;79;21332;-55
2021/08/17 01:59:47;;;;;;;33.10;11.40;;;;;;;17.97;70.71;100502.20;1783622;79;21350;-54
2021/08/17 02:02:56;;;;;;;24.40;11.57;;;;;;;18.02;70.36;100506.02;1779318;78;21324;-54
2021/08/17 02:06:03;;;;;;;19.55;10.50;;;;;;;17.95;70.01;100501.04;1769236;80;21221;-55
2021/08/17 02:09:08;;;;;;;25.72;10.98;;;;;;;17.86;70.11;100499.08;1733886;81;21411;-55
2021/08/17 02:12:15;;;;;;;19.55;10.32;;;;;;;17.80;70.29;100500.48;1776782;80;21217;-55
2021/08/17 02:15:21;;;;;;;23.18;11.15;;;;;;;17.76;70.61;100497.83;1759884;80;21205;-55
2021/08/17 02:18:30;;;;;;;23.95;11.15;;;;;;;17.81;70.87;100495.25;1777379;79;21221;-56
2021/08/17 02:21:36;;;;;;;15.18;10.68;;;;;;;17.85;70.74;100500.69;1762066;80;21239;-56
2021/08/17 02:24:41;;;;;;;17.67;11.12;;;;;;;17.81;70.58;100502.17;1772413;78;21342;-54
2021/08/17 02:27:46;;;;;;;23.35;11.63;;;;;;;17.78;70.72;100506.25;1775072;79;22000;-55
2021/08/17 02:30:53;;;;;;;17.67;11.15;;;;;;;17.75;70.89;100502.53;1776443;80;21244;-56
2021/08/17 02:33:58;;;;;;;58.38;32.75;;;;;;;17.73;70.98;100503.28;1787203;78;21389;-55
2021/08/17 02:37:04;;;;;;;82.25;46.53;;;;;;;17.73;71.26;100494.97;1787555;79;21263;-56
2021/08/17 02:40:11;;;;;;;57.83;33.48;;;;;;;17.78;71.34;100501.23;1787147;79;21236;-56
2021/08/17 02:43:23;;;;;;;48.23;25.48;;;;;;;17.83;71.23;100498.13;1782921;79;21355;-56
2021/08/17 02:46:23;;;;;;;80.12;48.40;;;;;;;17.79;71.02;100494.64;1787638;79;21327;-55
2021/08/17 02:49:32;;;;;;;108.12;64.90;;;;;;;17.75;71.11;100503.06;1804620;78;21334;-56
2021/08/17 02:52:36;;;;;;;124.87;63.10;;;;;;;17.72;71.11;100503.50;1774158;80;21277;-56
2021/08/17 02:55:41;;;;;;;43.58;25.00;;;;;;;17.67;71.15;100505.55;1777817;80;21316;-56
2021/08/17 02:58:47;;;;;;;30.92;16.23;;;;;;;17.65;71.25;100506.29;1768044;80;21260;-56
2021/08/17 03:01:53;;;;;;;38.00;17.23;;;;;;;17.64;71.24;100508.76;1768211;80;21256;-58
2021/08/17 03:04:59;;;;;;;30.52;14.10;;;;;;;17.63;71.28;100513.12;1769099;79;21347;-58
2021/08/17 03:08:07;;;;;;;28.95;13.62;;;;;;;17.60;71.40;100505.27;1770071;79;21193;-58
2021/08/17 03:11:12;;;;;;;31.73;13.72;;;;;;;17.61;71.77;100513.88;1781171;79;21358;-59
2021/08/17 03:14:18;;;;;;;41.42;18.15;;;;;;;17.67;71.91;100498.63;1784648;79;21188;-58
2021/08/17 03:17:24;;;;;;;48.38;21.50;;;;;;;17.75;71.84;100508.59;1792363;79;21346;-58
2021/08/17 03:20:29;;;;;;;48.55;20.90;;;;;;;17.82;71.77;100508.05;1800825;79;21355;-58
2021/08/17 03:23:36;;;;;;;66.12;25.95;;;;;;;17.88;71.76;100514.09;1775541;79;21264;-57
2021/08/17 03:26:41;;;;;;;42.27;19.65;;;;;;;17.96;71.87;100512.98;1755168;79;21386;-56
2021/08/17 03:29:46;;;;;;;40.35;17.90;;;;;;;18.00;71.78;100513.70;1769244;79;21360;-56
2021/08/17 03:32:54;;;;;;;44.70;18.45;;;;;;;18.03;71.73;100524.34;1768152;80;21178;-57
2021/08/17 03:36:00;;;;;;;36.28;16.97;;;;;;;18.07;71.65;100521.45;1771113;79;21331;-57
2021/08/17 03:39:07;;;;;;;33.28;15.05;;;;;;;18.10;71.68;100527.08;1768976;80;21387;-56
2021/08/17 03:42:12;;;;;;;28.45;12.82;;;;;;;18.11;71.52;100524.09;1768254;80;21351;-57
2021/08/17 03:45:20;;;;;;;33.35;13.25;;;;;;;18.12;71.31;100518.87;1779127;79;21394;-57
2021/08/17 03:48:25;;;;;;;30.85;12.37;;;;;;;18.16;71.29;100518.73;1768504;79;21690;-58
2021/08/17 03:51:31;;;;;;;39.15;13.70;;;;;;;18.23;71.41;100521.47;1770749;79;21748;-57
2021/08/17 03:54:37;;;;;;;33.85;12.80;;;;;;;18.34;71.20;100525.78;1724994;82;21840;-57
2021/08/17 03:57:43;;;;;;;30.48;12.93;;;;;;;18.45;70.77;100528.41;1724649;83;21277;-55
2021/08/17 04:00:50;;;;;;;23.27;14.47;;;;;;;18.56;70.31;100535.48;1725013;83;21587;-55
2021/08/17 04:03:57;;;;;;;26.30;16.37;;;;;;;18.66;69.98;100539.97;1724972;82;21241;-56
2021/08/17 04:07:02;;;;;;;34.05;17.87;;;;;;;18.76;69.66;100545.87;1725181;83;21210;-56
2021/08/17 04:10:09;;;;;;;33.60;18.35;;;;;;;18.82;69.31;100546.92;1716429;82;21240;-55
2021/08/17 04:13:15;;;;;;;30.15;17.60;;;;;;;18.86;69.25;100537.92;1712990;84;21212;-55
2021/08/17 04:16:22;;;;;;;23.32;15.43;;;;;;;18.90;69.23;100536.38;1713237;84;21224;-55
2021/08/17 04:19:27;;;;;;;29.15;15.90;;;;;;;18.92;69.02;100537.00;1713293;84;21366;-56
2021/08/17 04:22:33;;;;;;;31.05;16.73;;;;;;;18.98;68.80;100531.11;1713152;84;21359;-57
2021/08/17 04:25:38;;;;;;;27.82;16.25;;;;;;;19.07;68.60;100539.45;1700442;84;21212;-57
2021/08/17 04:28:45;;;;;;;30.77;15.25;;;;;;;19.20;68.79;100538.77;1701421;84;21290;-56
2021/08/17 04:31:52;;;;;;;22.13;12.98;;;;;;;19.34;68.87;100533.43;1720110;82;21194;-55
2021/08/17 04:34:58;;;;;;;17.12;12.33;;;;;;;19.49;68.74;100530.30;1732166;81;21288;-55
2021/08/17 04:38:04;;;;;;;17.35;10.70;;;;;;;19.65;68.35;100533.86;1771559;80;22158;-55
2021/08/17 04:41:11;;;;;;;25.52;11.22;;;;;;;19.79;68.06;100529.84;1768378;80;21836;-55
2021/08/17 04:44:19;;;;;;;25.43;10.70;;;;;;;19.94;67.31;100535.02;1767834;80;21205;-55
2021/08/17 04:47:26;;;;;;;18.40;9.63;;;;;;;20.09;66.04;100533.52;1768058;80;21190;-55
2021/08/17 04:50:32;;;;;;;17.15;9.38;;;;;;;20.23;64.99;100530.90;1767238;80;21244;-55
2021/08/17 04:53:38;;;;;;;19.70;10.25;;;;;;;20.38;64.28;100529.09;1767713;80;21363;-55
2021/08/17 04:56:43;;;;;;;23.50;9.88;;;;;;;20.51;64.02;100531.16;1767926;80;21478;-55
2021/08/17 04:59:49;;;;;;;18.25;9.45;;;;;;;20.65;63.65;100540.99;1767951;80;21368;-55
2021/08/17 05:02:55;;;;;;;18.52;9.38;;;;;;;20.79;62.99;100535.52;1767418;80;21315;-55
2021/08/17 05:06:01;;;;;;;17.12;8.45;;;;;;;20.95;62.37;100533.97;1767572;81;21186;-55
2021/08/17 05:09:08;;;;;;;18.70;9.68;;;;;;;21.12;61.60;100531.38;1768295;80;21252;-60
2021/08/17 05:12:15;;;;;;;17.75;8.68;;;;;;;21.27;61.41;100535.38;1766957;80;21319;-60
2021/08/17 05:15:20;;;;;;;21.17;9.28;;;;;;;21.44;60.98;100539.66;1748446;81;21309;-61
2021/08/17 05:18:32;;;;;;;13.08;8.65;;;;;;;21.59;60.72;100538.11;1751070;80;21671;-57
2021/08/17 05:21:38;;;;;;;19.40;8.95;;;;;;;21.74;60.51;100532.86;1718231;83;21213;-58
2021/08/17 05:24:44;;;;;;;27.27;8.80;;;;;;;21.89;60.26;100537.42;1770584;79;21358;-57
2021/08/17 05:27:50;;;;;;;21.50;9.28;;;;;;;22.04;60.08;100525.19;1767197;80;21734;-57
2021/08/17 05:30:56;;;;;;;17.07;8.75;;;;;;;22.19;59.52;100533.89;1752386;81;21320;-57
2021/08/17 05:34:01;;;;;;;14.00;8.38;;;;;;;22.34;59.10;100529.70;1764696;81;21324;-56
2021/08/17 05:37:07;;;;;;;16.48;8.73;;;;;;;22.48;58.97;100531.09;1765570;80;21244;-55
2021/08/17 05:40:14;;;;;;;19.73;9.50;;;;;;;22.64;58.71;100527.53;1755306;80;21383;-56
2021/08/17 05:43:19;;;;;;;14.33;8.40;;;;;;;22.78;58.41;100521.92;1735802;81;21188;-55
2021/08/17 05:46:25;;;;;;;20.27;8.83;;;;;;;22.92;57.73;100519.10;1747979;81;21729;-58
2021/08/17 05:49:31;;;;;;;20.20;8.23;;;;;;;23.09;57.41;100524.13;1746007;81;21745;-56
2021/08/17 05:52:39;;;;;;;12.55;7.75;;;;;;;23.24;57.06;100513.22;1731946;79;21796;-57
2021/08/17 05:55:46;;;;;;;15.18;7.72;;;;;;;23.41;56.24;100512.14;1768722;79;21768;-58
2021/08/17 05:58:53;;;;;;;15.53;7.95;;;;;;;23.58;55.83;100509.30;1779963;79;21698;-57
2021/08/17 06:02:02;;;;;;;16.70;8.20;;;;;;;23.74;55.55;100512.60;1780079;79;21196;-56
2021/08/17 06:05:08;;;;;;;13.18;7.55;;;;;;;23.90;55.35;100516.45;1766216;79;21315;-59
2021/08/17 06:08:14;;;;;;;15.23;8.28;;;;;;;24.07;55.13;100513.91;1781614;80;21461;-58
2021/08/17 06:11:21;;;;;;;18.77;9.18;;;;;;;24.24;54.39;100520.84;1791453;79;21192;-58
2021/08/17 06:14:27;;;;;;;15.40;8.05;;;;;;;24.39;53.78;100523.81;1786605;80;21194;-58
2021/08/17 06:17:34;;;;;;;14.87;7.80;;;;;;;24.55;53.61;100526.53;1759278;81;21193;-58
2021/08/17 06:20:41;;;;;;;18.00;9.58;;;;;;;24.68;52.95;100521.09;1752451;81;21191;-58
2021/08/17 06:23:50;;;;;;;20.55;9.80;;;;;;;24.81;52.65;100518.72;1760595;80;21246;-58
2021/08/17 06:26:56;;;;;;;14.47;8.75;;;;;;;24.95;52.51;100519.12;1748637;81;21248;-58
2021/08/17 06:30:03;;;;;;;18.90;9.75;;;;;;;25.10;52.62;100518.41;1770669;81;21201;-58
2021/08/17 06:33:12;;;;;;;14.50;8.68;;;;;;;25.25;52.29;100522.17;1757753;80;21202;-57
2021/08/17 06:36:18;;;;;;;18.82;9.43;;;;;;;25.39;51.82;100519.77;1753041;81;21333;-58
2021/08/17 06:39:24;;;;;;;19.40;10.08;;;;;;;25.54;51.91;100521.30;1753152;81;21222;-57
2021/08/17 06:42:29;;;;;;;24.18;9.28;;;;;;;25.66;52.00;100520.52;1696885;84;21252;-59
2021/08/17 06:45:38;;;;;;;14.95;9.48;;;;;;;25.79;51.95;100524.25;1696482;83;21237;-60
2021/08/17 06:48:43;;;;;;;18.05;9.88;;;;;;;25.91;50.46;100521.52;1715713;82;21611;-58
2021/08/17 06:51:49;;;;;;;18.65;10.13;;;;;;;26.03;49.97;100517.98;1717273;81;21831;-59
2021/08/17 06:54:57;;;;;;;21.62;10.23;;;;;;;26.18;49.59;100525.59;1720617;81;21746;-58
2021/08/17 06:58:05;;;;;;;15.85;8.75;;;;;;;26.30;49.39;100530.43;1748669;80;21789;-57
2021/08/17 07:01:11;;;;;;;16.85;8.95;;;;;;;26.42;49.12;100526.81;1750628;80;21227;-59
2021/08/17 07:04:20;;;;;;;17.23;8.15;;;;;;;26.56;48.87;100532.18;1753550;79;21196;-58
2021/08/17 07:07:27;;;;;;;13.55;7.60;;;;;;;26.70;48.08;100533.40;1765683;81;21402;-58
2021/08/17 07:10:33;;;;;;;84.13;46.95;;;;;;;26.83;47.58;100537.63;1762975;81;21907;-58
2021/08/17 07:13:40;;;;;;;27.40;13.88;;;;;;;26.92;47.00;100543.83;1761317;79;21296;-58
2021/08/17 07:16:46;;;;;;;16.55;8.23;;;;;;;27.03;45.95;100541.31;1748092;79;21178;-58
2021/08/17 07:19:52;;;;;;;19.05;7.87;;;;;;;27.14;44.91;100539.34;1786615;79;21216;-57
2021/08/17 07:23:02;;;;;;;13.58;7.30;;;;;;;27.21;44.51;100537.92;1768620;79;21602;-58
2021/08/17 07:26:08;;;;;;;14.23;8.08;;;;;;;27.30;43.57;100529.81;1766683;80;21241;-57
2021/08/17 07:29:13;;;;;;;31.07;8.68;;;;;;;27.37;43.46;100522.77;1762229;81;21370;-58
2021/08/17 07:32:19;;;;;;;15.23;7.85;;;;;;;27.47;43.98;100532.62;1755990;79;21268;-57
2021/08/17 07:35:27;;;;;;;12.90;6.90;;;;;;;27.62;43.70;100528.36;1747576;80;21739;-57
2021/08/17 07:38:35;;;;;;;16.73;7.00;;;;;;;27.73;42.35;100527.80;1781870;79;21247;-58
2021/08/17 07:41:41;;;;;;;12.15;7.08;;;;;;;27.82;41.86;100536.78;1785614;79;21188;-56
2021/08/17 07:44:46;;;;;;;10.85;6.42;;;;;;;27.91;41.48;100534.23;1787700;79;21209;-58
2021/08/17 07:47:52;;;;;;;10.95;6.10;;;;;;;27.99;40.83;100537.05;1753828;79;21220;-58
2021/08/17 07:51:00;;;;;;;11.15;6.12;;;;;;;28.08;40.91;100529.69;1750715;80;21208;-60
2021/08/17 07:54:08;;;;;;;11.78;6.65;;;;;;;28.16;40.25;100529.09;1756125;81;21426;-59
2021/08/17 07:57:14;;;;;;;16.07;7.03;;;;;;;28.22;40.27;100526.53;1785762;79;21224;-58
2021/08/17 08:00:20;;;;;;;14.20;6.62;;;;;;;28.30;40.60;100524.52;1768085;80;21196;-57
2021/08/17 08:03:28;;;;;;;18.82;7.67;;;;;;;28.37;39.84;100524.48;1797262;79;21530;-55
2021/08/17 08:06:37;;;;;;;11.80;6.60;;;;;;;28.45;39.77;100528.66;1765166;79;21332;-58
2021/08/17 08:09:46;;;;;;;13.38;6.55;;;;;;;28.57;40.20;100524.98;1766425;79;21241;-59
2021/08/17 08:12:52;;;;;;;10.63;7.08;;;;;;;28.66;39.86;100519.85;1793603;78;21184;-58
2021/08/17 08:16:00;;;;;;;10.30;6.92;;;;;;;28.76;39.23;100510.48;1768810;79;21578;-57
2021/08/17 08:19:06;;;;;;;10.68;6.58;;;;;;;28.85;39.22;100510.13;1769160;79;21382;-58
2021/08/17 08:22:14;;;;;;;12.90;6.58;;;;;;;28.96;39.31;100519.64;1760442;80;21331;-57
2021/08/17 08:25:18;;;;;;;12.50;6.80;;;;;;;29.05;39.43;100515.64;1819887;78;21200;-57
2021/08/17 08:28:25;;;;;;;12.80;6.95;;;;;;;29.17;38.96;100518.95;1775103;80;21185;-55
2021/08/17 08:31:31;;;;;;;13.53;6.90;;;;;;;29.25;38.91;100514.08;1727572;82;21185;-56
2021/08/17 08:34:35;;;;;;;12.60;6.90;;;;;;;29.34;38.88;100505.25;1799796;79;21180;-55
2021/08/17 08:37:42;;;;;;;16.35;8.30;;;;;;;29.42;38.85;100503.75;1801961;79;21833;-56
2021/08/17 08:40:51;;;;;;;11.65;7.33;;;;;;;29.51;38.81;100508.45;1793267;79;21328;-57
2021/08/17 08:43:58;;;;;;;14.38;8.00;;;;;;;29.61;39.11;100507.52;1750371;81;21558;-56
2021/08/17 08:47:05;;;;;;;12.93;8.30;;;;;;;29.71;38.52;100499.83;1796007;79;21267;-56
2021/08/17 08:50:10;;;;;;;13.22;8.28;;;;;;;29.77;38.22;100500.05;1783037;79;21611;-55
2021/08/17 08:53:16;;;;;;;16.15;8.28;;;;;;;29.82;38.13;100487.28;1774616;78;21204;-56
2021/08/17 08:56:25;;;;;;;12.45;8.83;;;;;;;29.89;37.83;100489.75;1794751;79;21216;-56
2021/08/17 08:59:31;;;;;;;15.32;8.45;;;;;;;29.96;38.12;100484.57;1742746;80;21244;-55
2021/08/17 09:02:37;;;;;;;15.45;8.18;;;;;;;30.15;38.04;100482.07;1740152;81;21625;-58
2021/08/17 09:06:00;;;;;;;19.45;9.00;;;;;;;30.15;38.04;100482.07;1751551;79;21197;-57
2021/08/17 09:09:19;;;;;;;12.75;8.78;;;;;;;30.19;38.38;100478.89;1766480;79;21796;-56
2021/08/17 09:12:24;;;;;;;15.08;9.18;;;;;;;30.24;38.16;100481.69;1757787;81;21291;-57
2021/08/17 09:15:38;;;;;;;15.28;9.80;;;;;;;30.36;37.36;100471.37;1731314;81;21185;-57
2021/08/17 09:18:46;;;;;;;15.88;9.35;;;;;;;30.36;37.36;100471.37;1744643;80;21170;-58
2021/08/17 09:21:53;;;;;;;17.00;9.25;;;;;;;30.44;37.35;100470.13;1741929;82;21224;-56
2021/08/17 09:25:03;;;;;;;16.25;9.85;;;;;;;30.44;37.35;100470.13;1741071;81;21595;-56
2021/08/17 09:28:13;;;;;;;14.90;10.58;;;;;;;30.51;36.99;100479.05;1738299;80;21907;-57
2021/08/17 09:31:42;;;;;;;13.68;10.00;;;;;;;30.56;36.79;100476.16;1726834;82;21181;-52
2021/08/17 09:34:47;;;;;;;17.67;10.40;;;;;;;30.56;36.79;100476.16;1797424;79;21216;-53
2021/08/17 09:37:53;;;;;;;16.25;9.55;;;;;;;30.68;36.93;100456.73;1805101;78;21218;-51
2021/08/17 09:40:59;;;;;;;13.58;10.15;;;;;;;30.68;36.93;100456.73;1815762;78;21157;-54
2021/08/17 09:44:13;;;;;;;17.32;10.60;;;;;;;30.77;36.49;100467.38;1841561;77;21172;-54
2021/08/17 09:47:19;;;;;;;14.98;11.63;;;;;;;30.81;36.27;100461.40;1815659;78;21225;-53
2021/08/17 09:50:38;;;;;;;14.93;10.93;;;;;;;30.93;35.81;100457.51;1797798;79;21868;-53
2021/08/17 09:53:43;;;;;;;16.32;10.70;;;;;;;30.93;35.81;100457.51;1779894;79;21208;-54
2021/08/17 09:56:49;;;;;;;16.00;10.80;;;;;;;31.04;36.07;100457.60;1766130;81;21169;-54
2021/08/17 09:59:54;;;;;;;21.90;10.72;;;;;;;31.16;35.99;100449.49;1761484;80;21789;-52
2021/08/17 10:03:17;;;;;;;19.37;12.98;;;;;;;31.26;36.20;100440.80;1740265;79;21247;-53
2021/08/17 10:06:30;;;;;;;14.87;10.98;;;;;;;31.40;35.67;100456.70;1763391;80;21795;-54
2021/08/17 10:09:43;;;;;;;18.62;11.10;;;;;;;31.43;34.39;100454.66;1744837;81;21757;-54
2021/08/17 10:12:51;;;;;;;17.67;10.88;;;;;;;31.38;34.59;100449.09;1761448;80;21232;-53
2021/08/17 10:16:02;;;;;;;17.32;10.40;;;;;;;31.43;34.78;100456.06;1749143;80;21181;-53
2021/08/17 10:19:12;;;;;;;18.73;10.85;;;;;;;31.51;34.40;100448.27;1751953;80;21177;-51
2021/08/17 10:22:26;;;;;;;13.22;10.40;;;;;;;31.61;34.54;100442.99;1746237;80;21165;-53
2021/08/17 10:25:32;;;;;;;16.02;10.03;;;;;;;31.71;34.30;100441.38;1750113;80;21205;-52
2021/08/17 10:28:50;;;;;;;15.35;9.88;;;;;;;31.73;34.25;100435.66;1724178;80;21205;-51
2021/08/17 10:31:59;;;;;;;15.53;10.68;;;;;;;31.81;34.69;100434.08;1739608;82;21256;-51
2021/08/17 10:35:06;;;;;;;14.95;10.45;;;;;;;31.96;34.74;100435.22;1739120;81;21271;-52
2021/08/17 10:38:25;;;;;;;14.98;10.43;;;;;;;32.04;33.79;100434.48;1739727;81;21241;-53
2021/08/17 10:41:39;;;;;;;15.00;10.30;;;;;;;32.09;33.51;100430.13;1739369;82;21193;-51
2021/08/17 10:44:45;;;;;;;17.00;10.70;;;;;;;32.16;33.49;100424.85;1739160;81;21232;-53
2021/08/17 10:47:50;;;;;;;17.57;10.45;;;;;;;32.25;33.31;100421.55;1744030;80;21756;-53
2021/08/17 10:50:56;;;;;;;12.40;9.80;;;;;;;32.35;33.54;100419.87;1770404;80;21181;-53
2021/08/17 10:54:16;;;;;;;16.93;10.63;;;;;;;32.47;32.66;100413.13;1770164;79;21205;-52
2021/08/17 10:57:25;;;;;;;21.35;10.68;;;;;;;32.52;32.33;100401.67;1770378;80;21153;-52
2021/08/17 11:01:01;;;;;;;16.80;10.78;;;;;;;32.63;32.38;100405.09;1804853;79;21362;-54
2021/08/17 11:04:17;;;;;;;17.00;10.93;;;;;;;32.76;32.02;100407.03;1805062;78;21397;-52
2021/08/17 11:07:36;;;;;;;17.62;12.43;;;;;;;32.82;31.81;100410.84;1804252;79;21451;-51
2021/08/17 11:10:41;;;;;;;18.00;11.85;;;;;;;32.96;32.10;100409.38;1788608;79;21373;-51
2021/08/17 11:13:47;;;;;;;20.90;12.75;;;;;;;33.07;32.34;100409.37;1796335;78;21177;-52
2021/08/17 11:17:02;;;;;;;18.82;12.45;;;;;;;33.17;31.81;100402.83;1770743;80;21210;-50
2021/08/17 11:20:08;;;;;;;19.30;12.98;;;;;;;33.23;31.87;100404.97;1766305;81;21395;-53
2021/08/17 11:23:26;;;;;;;17.85;11.97;;;;;;;33.27;31.65;100401.72;1756899;80;21229;-51
2021/08/17 11:26:39;;;;;;;16.48;11.03;;;;;;;33.12;31.59;100407.25;1761713;80;21375;-51
2021/08/17 11:30:02;;;;;;;21.57;12.00;;;;;;;32.88;32.21;100412.95;1767668;81;21413;-51
2021/08/17 11:33:08;;;;;;;17.40;10.58;;;;;;;32.79;32.49;100397.28;1771960;78;21787;-52
2021/08/17 11:36:32;;;;;;;18.32;10.90;;;;;;;32.83;32.75;100400.31;1803368;79;21315;-51
2021/08/17 11:39:45;;;;;;;16.95;11.05;;;;;;;32.81;32.46;100399.82;1808650;79;21398;-51
2021/08/17 11:42:57;;;;;;;18.60;10.25;;;;;;;32.73;32.74;100392.90;1765645;81;21249;-51
2021/08/17 11:46:02;;;;;;;12.93;8.98;;;;;;;32.73;33.05;100397.16;1766156;81;21324;-50
2021/08/17 11:49:31;;;;;;;17.27;10.75;;;;;;;32.82;32.92;100390.14;1737204;81;21177;-51
2021/08/17 11:52:45;;;;;;;15.40;10.20;;;;;;;32.83;33.08;100384.71;1743572;81;21241;-51
2021/08/17 11:55:51;;;;;;;16.70;9.43;;;;;;;32.74;32.69;100391.76;1763880;80;21920;-52
2021/08/17 11:59:02;;;;;;;16.75;9.28;;;;;;;32.74;33.08;100385.23;1758002;80;21338;-52
2021/08/17 12:02:09;;;;;;;17.00;9.08;;;;;;;32.72;32.52;100382.73;1740671;82;21192;-53
2021/08/17 12:05:16;;;;;;;22.32;9.63;;;;;;;32.72;32.45;100375.64;1775391;79;21267;-51
2021/08/17 12:08:24;;;;;;;15.55;9.90;;;;;;;32.77;32.25;100376.08;1776160;79;21196;-51
2021/08/17 12:11:30;;;;;;;11.15;8.68;;;;;;;32.72;32.39;100368.55;1751477;80;21757;-50
2021/08/17 12:14:37;;;;;;;22.40;9.60;;;;;;;32.62;32.71;100363.72;1774045;79;21217;-51
2021/08/17 12:17:46;;;;;;;16.50;9.80;;;;;;;32.61;33.32;100362.87;1767046;81;21177;-52
2021/08/17 12:21:05;;;;;;;14.93;9.63;;;;;;;32.72;33.36;100360.04;1747523;80;21776;-55
2021/08/17 12:24:15;;;;;;;14.98;8.95;;;;;;;32.84;33.48;100357.44;1768670;79;21350;-53
2021/08/17 12:27:29;;;;;;;15.13;9.35;;;;;;;32.96;32.88;100353.48;1744474;82;21272;-54
2021/08/17 12:30:40;;;;;;;12.90;8.98;;;;;;;33.03;32.34;100355.86;1736247;82;21548;-54
2021/08/17 12:33:55;;;;;;;15.00;9.50;;;;;;;33.07;32.61;100361.97;1742825;81;21209;-53
2021/08/17 12:37:00;;;;;;;16.90;9.33;;;;;;;33.10;32.67;100365.58;1768832;80;21633;-54
2021/08/17 12:40:08;;;;;;;17.75;9.05;;;;;;;33.12;32.26;100347.66;1739339;80;21748;-53
2021/08/17 12:43:19;;;;;;;12.53;8.75;;;;;;;33.06;31.81;100349.53;1757300;79;21208;-54
2021/08/17 12:46:25;;;;;;;11.60;8.10;;;;;;;32.91;32.38;100353.61;1768140;80;21185;-54
2021/08/17 12:49:56;;;;;;;12.88;8.28;;;;;;;32.82;32.87;100347.59;1745845;81;21196;-53
2021/08/17 12:53:03;;;;;;;15.70;9.85;;;;;;;32.77;32.63;100345.73;1731346;81;21165;-53
2021/08/17 12:56:09;;;;;;;13.60;10.40;;;;;;;32.78;32.80;100338.04;1723493;82;21418;-53
2021/08/17 12:59:17;;;;;;;13.28;8.48;;;;;;;32.77;32.82;100345.73;1731881;82;21862;-55
2021/08/17 13:02:21;;;;;;;15.18;8.65;;;;;;;32.64;32.73;100339.55;1742165;80;21208;-54
2021/08/17 13:05:28;;;;;;;12.30;8.25;;;;;;;32.50;32.94;100337.36;1765597;81;21320;-53
2021/08/17 13:08:36;;;;;;;12.13;8.50;;;;;;;32.45;33.20;100336.06;1767087;80;21194;-55
2021/08/17 13:11:44;;;;;;;15.10;7.45;;;;;;;32.49;33.73;100327.76;1768869;79;21173;-55
2021/08/17 13:14:49;;;;;;;14.15;8.40;;;;;;;32.45;33.07;100328.97;1786734;79;21754;-54
2021/08/17 13:17:59;;;;;;;14.20;8.23;;;;;;;32.36;32.68;100328.05;1745228;81;21229;-55
2021/08/17 13:21:07;;;;;;;14.87;7.35;;;;;;;32.30;32.82;100326.47;1737618;81;21256;-55
2021/08/17 13:24:17;;;;;;;13.62;7.90;;;;;;;32.29;33.76;100329.63;1756045;80;21770;-54
2021/08/17 13:27:21;;;;;;;19.00;7.75;;;;;;;32.25;33.67;100329.45;1771225;80;21726;-54
2021/08/17 13:30:27;;;;;;;20.68;8.48;;;;;;;32.15;34.25;100330.25;1789138;79;21827;-54
2021/08/17 13:33:34;;;;;;;16.73;8.25;;;;;;;32.02;34.73;100333.38;1782232;78;21365;-56
2021/08/17 13:36:44;;;;;;;18.37;8.25;;;;;;;31.89;34.80;100328.02;1807806;79;21374;-56
2021/08/17 13:39:58;;;;;;;19.20;8.60;;;;;;;31.78;35.21;100324.27;1808864;78;21464;-55
2021/08/17 13:43:10;;;;;;;25.05;8.33;;;;;;;31.68;35.61;100322.50;1776224;79;21734;-56
2021/08/17 13:46:21;;;;;;;15.78;9.20;;;;;;;31.55;35.71;100319.13;1810550;79;22066;-56
2021/08/17 13:49:26;;;;;;;17.32;7.85;;;;;;;31.46;36.19;100323.02;1776234;80;21197;-57
2021/08/17 13:52:33;;;;;;;20.57;8.70;;;;;;;31.37;36.12;100316.39;1741334;82;22077;-56
2021/08/17 13:55:39;;;;;;;19.23;8.58;;;;;;;31.27;36.59;100315.17;1781992;79;21400;-55
2021/08/17 13:58:46;;;;;;;21.48;8.93;;;;;;;31.20;36.88;100316.15;1776615;79;21730;-56
2021/08/17 14:01:52;;;;;;;15.15;8.98;;;;;;;31.13;37.26;100317.16;1781351;78;21256;-57
2021/08/17 14:04:58;;;;;;;17.37;9.25;;;;;;;31.09;37.25;100313.26;1756975;80;21267;-56
2021/08/17 14:08:03;;;;;;;17.55;9.38;;;;;;;31.18;37.89;100307.12;1738924;81;21554;-53
2021/08/17 14:11:09;;;;;;;16.15;9.68;;;;;;;31.28;37.97;100308.34;1722567;83;21603;-55
2021/08/17 14:14:15;;;;;;;25.62;9.08;;;;;;;31.38;38.27;100302.52;1697016;83;21730;-52
2021/08/17 14:17:20;;;;;;;18.17;9.40;;;;;;;31.50;38.51;100302.81;1715246;82;21208;-52